sensor_id;sensor_type;location;lat;lon;timestamp;pressure;altitude;pressure_sealevel;temperature;humidity
3150;BME280;32503;47.748;8.960;2023-02-11T00:01:07;98871.97;;;-0.19;62.54
3150;BME280;32503;47.748;8.960;2023-02-11T00:03:34;98895.06;;;-0.08;62.63
3150;BME280;32503;47.748;8.960;2023-02-11T00:06:05;98882.59;;;-0.19;62.85
3150;BME280;32503;47.748;8.960;2023-02-11T00:08:34;98864.81;;;-0.30;62.63
3150;BME280;32503;47.748;8.960;2023-02-11T00:11:01;98900.28;;;-0.13;62.80
3150;BME280;32503;47.748;8.960;2023-02-11T00:13:30;98901.53;;;-0.04;62.30
3150;BME280;32503;47.748;8.960;2023-02-11T00:15:57;98888.81;;;-0.02;61.64
3150;BME280;32503;47.748;8.960;2023-02-11T00:18:24;98889.63;;;-0.13;62.04
3150;BME280;32503;47.748;8.960;2023-02-11T00:20:51;98884.88;;;-0.11;62.07
3150;BME280;32503;47.748;8.960;2023-02-11T00:23:18;98896.47;;;-0.17;62.96
3150;BME280;32503;47.748;8.960;2023-02-11T00:25:45;98878.22;;;-0.25;62.95
3150;BME280;32503;47.748;8.960;2023-02-11T00:28:12;98881.34;;;-0.28;63.24
3150;BME280;32503;47.748;8.960;2023-02-11T00:30:40;98894.16;;;-0.25;62.85
3150;BME280;32503;47.748;8.960;2023-02-11T00:33:08;98888.84;;;-0.25;62.85
3150;BME280;32503;47.748;8.960;2023-02-11T00:35:36;98885.16;;;-0.24;62.95
3150;BME280;32503;47.748;8.960;2023-02-11T00:38:04;98837.34;;;-0.48;62.96
3150;BME280;32503;47.748;8.960;2023-02-11T00:42:58;98867.59;;;-0.25;62.59
3150;BME280;32503;47.748;8.960;2023-02-11T00:45:25;98865.66;;;-0.30;62.56
3150;BME280;32503;47.748;8.960;2023-02-11T00:47:54;98861.59;;;-0.44;62.57
3150;BME280;32503;47.748;8.960;2023-02-11T00:50:22;98847.97;;;-0.48;62.87
3150;BME280;32503;47.748;8.960;2023-02-11T00:52:49;98854.06;;;-0.35;62.39
3150;BME280;32503;47.748;8.960;2023-02-11T00:55:16;98860.69;;;-0.38;62.74
3150;BME280;32503;47.748;8.960;2023-02-11T00:57:43;98864.25;;;-0.32;62.42
3150;BME280;32503;47.748;8.960;2023-02-11T01:00:13;98851.78;;;-0.44;62.49
3150;BME280;32503;47.748;8.960;2023-02-11T01:02:40;98857.78;;;-0.36;62.43
3150;BME280;32503;47.748;8.960;2023-02-11T01:05:08;98859.31;;;-0.41;62.37
3150;BME280;32503;47.748;8.960;2023-02-11T01:07:35;98840.25;;;-0.49;62.76
3150;BME280;32503;47.748;8.960;2023-02-11T01:10:03;98853.41;;;-0.43;62.57
3150;BME280;32503;47.748;8.960;2023-02-11T01:12:30;98854.00;;;-0.41;62.39
3150;BME280;32503;47.748;8.960;2023-02-11T01:14:57;98849.13;;;-0.44;62.14
3150;BME280;32503;47.748;8.960;2023-02-11T01:17:25;98851.91;;;-0.39;62.18
3150;BME280;32503;47.748;8.960;2023-02-11T01:19:52;98842.31;;;-0.40;61.87
3150;BME280;32503;47.748;8.960;2023-02-11T01:22:20;98837.22;;;-0.41;61.85
3150;BME280;32503;47.748;8.960;2023-02-11T01:24:47;98840.69;;;-0.41;61.79
3150;BME280;32503;47.748;8.960;2023-02-11T01:27:14;98847.03;;;-0.42;61.44
3150;BME280;32503;47.748;8.960;2023-02-11T01:29:41;98844.28;;;-0.47;61.69
3150;BME280;32503;47.748;8.960;2023-02-11T01:32:08;98848.13;;;-0.54;61.94
3150;BME280;32503;47.748;8.960;2023-02-11T01:34:35;98850.16;;;-0.57;61.66
3150;BME280;32503;47.748;8.960;2023-02-11T01:37:02;98846.94;;;-0.59;61.91
3150;BME280;32503;47.748;8.960;2023-02-11T01:39:33;98843.84;;;-0.67;61.97
3150;BME280;32503;47.748;8.960;2023-02-11T01:42:01;98853.66;;;-0.80;62.65
3150;BME280;32503;47.748;8.960;2023-02-11T01:44:30;98856.31;;;-0.80;62.67
3150;BME280;32503;47.748;8.960;2023-02-11T01:46:58;98834.75;;;-0.95;63.23
3150;BME280;32503;47.748;8.960;2023-02-11T01:49:28;98845.13;;;-0.93;63.91
3150;BME280;32503;47.748;8.960;2023-02-11T01:52:00;98839.94;;;-1.00;64.44
3150;BME280;32503;47.748;8.960;2023-02-11T01:54:31;98834.72;;;-1.07;64.81
3150;BME280;32503;47.748;8.960;2023-02-11T01:57:21;98812.78;;;-1.14;64.22
3150;BME280;32503;47.748;8.960;2023-02-11T02:00:06;98845.94;;;-0.93;64.79
3150;BME280;32503;47.748;8.960;2023-02-11T02:02:39;98839.81;;;-0.82;64.39
3150;BME280;32503;47.748;8.960;2023-02-11T02:05:19;98843.03;;;-0.80;64.22
3150;BME280;32503;47.748;8.960;2023-02-11T02:07:58;98820.97;;;-0.92;64.50
3150;BME280;32503;47.748;8.960;2023-02-11T02:10:27;98833.56;;;-0.87;64.30
3150;BME280;32503;47.748;8.960;2023-02-11T02:12:57;98826.63;;;-0.88;63.93
3150;BME280;32503;47.748;8.960;2023-02-11T02:15:28;98830.56;;;-0.91;64.23
3150;BME280;32503;47.748;8.960;2023-02-11T02:18:22;98833.69;;;-0.94;64.10
3150;BME280;32503;47.748;8.960;2023-02-11T02:24:48;98836.34;;;-1.06;63.92
3150;BME280;32503;47.748;8.960;2023-02-11T02:27:43;98835.63;;;-1.13;64.47
3150;BME280;32503;47.748;8.960;2023-02-11T02:30:57;98830.69;;;-1.09;64.04
3150;BME280;32503;47.748;8.960;2023-02-11T02:33:48;98819.59;;;-1.06;63.43
3150;BME280;32503;47.748;8.960;2023-02-11T02:36:23;98812.69;;;-1.07;63.99
3150;BME280;32503;47.748;8.960;2023-02-11T02:38:58;98807.25;;;-1.12;63.83
3150;BME280;32503;47.748;8.960;2023-02-11T02:41:29;98793.53;;;-1.09;63.39
3150;BME280;32503;47.748;8.960;2023-02-11T02:43:58;98807.22;;;-1.01;63.50
3150;BME280;32503;47.748;8.960;2023-02-11T02:46:28;98803.22;;;-1.03;63.63
3150;BME280;32503;47.748;8.960;2023-02-11T02:48:57;98763.97;;;-1.25;63.44
3150;BME280;32503;47.748;8.960;2023-02-11T02:54:51;98792.59;;;-1.03;63.99
3150;BME280;32503;47.748;8.960;2023-02-11T02:57:31;98791.91;;;-1.10;63.93
3150;BME280;32503;47.748;8.960;2023-02-11T03:00:12;98799.41;;;-1.07;63.63
3150;BME280;32503;47.748;8.960;2023-02-11T03:02:51;98798.84;;;-1.09;63.61
3150;BME280;32503;47.748;8.960;2023-02-11T03:05:32;98795.56;;;-1.11;63.92
3150;BME280;32503;47.748;8.960;2023-02-11T03:08:08;98791.31;;;-1.12;63.92
3150;BME280;32503;47.748;8.960;2023-02-11T03:10:40;98785.91;;;-1.18;63.42
3150;BME280;32503;47.748;8.960;2023-02-11T03:13:09;98779.31;;;-1.15;63.91
3150;BME280;32503;47.748;8.960;2023-02-11T03:15:40;98792.00;;;-1.29;63.91
3150;BME280;32503;47.748;8.960;2023-02-11T03:18:12;98758.63;;;-1.48;64.34
3150;BME280;32503;47.748;8.960;2023-02-11T03:20:45;98787.38;;;-1.34;64.10
3150;BME280;32503;47.748;8.960;2023-02-11T03:23:20;98789.31;;;-1.29;63.97
3150;BME280;32503;47.748;8.960;2023-02-11T03:25:54;98778.03;;;-1.36;64.04
3150;BME280;32503;47.748;8.960;2023-02-11T03:28:29;98762.22;;;-1.43;63.88
3150;BME280;32503;47.748;8.960;2023-02-11T03:31:09;98765.44;;;-1.29;63.79
3150;BME280;32503;47.748;8.960;2023-02-11T03:33:44;98768.81;;;-1.22;63.79
3150;BME280;32503;47.748;8.960;2023-02-11T03:36:20;98775.38;;;-1.24;63.89
3150;BME280;32503;47.748;8.960;2023-02-11T03:38:52;98768.59;;;-1.32;63.75
3150;BME280;32503;47.748;8.960;2023-02-11T03:41:22;98777.69;;;-1.28;63.83
3150;BME280;32503;47.748;8.960;2023-02-11T03:43:53;98773.53;;;-1.24;63.34
3150;BME280;32503;47.748;8.960;2023-02-11T03:46:26;98747.69;;;-1.28;63.53
3150;BME280;32503;47.748;8.960;2023-02-11T03:48:58;98758.56;;;-1.18;63.36
3150;BME280;32503;47.748;8.960;2023-02-11T03:51:29;98765.81;;;-1.13;62.90
3150;BME280;32503;47.748;8.960;2023-02-11T03:54:01;98768.81;;;-1.22;62.91
3150;BME280;32503;47.748;8.960;2023-02-11T03:56:34;98758.56;;;-1.18;62.93
3150;BME280;32503;47.748;8.960;2023-02-11T03:59:04;98759.69;;;-1.14;62.39
3150;BME280;32503;47.748;8.960;2023-02-11T04:01:31;98757.72;;;-1.19;62.48
3150;BME280;32503;47.748;8.960;2023-02-11T04:03:58;98766.84;;;-1.26;63.79
3150;BME280;32503;47.748;8.960;2023-02-11T04:06:25;98766.38;;;-1.35;64.03
3150;BME280;32503;47.748;8.960;2023-02-11T04:08:54;98753.78;;;-1.40;63.60
3150;BME280;32503;47.748;8.960;2023-02-11T04:11:21;98762.09;;;-1.36;64.50
3150;BME280;32503;47.748;8.960;2023-02-11T04:13:48;98762.59;;;-1.39;64.36
3150;BME280;32503;47.748;8.960;2023-02-11T04:16:15;98771.56;;;-1.40;64.35
3150;BME280;32503;47.748;8.960;2023-02-11T04:18:42;98764.41;;;-1.40;64.87
3150;BME280;32503;47.748;8.960;2023-02-11T04:21:09;98760.50;;;-1.37;64.23
3150;BME280;32503;47.748;8.960;2023-02-11T04:23:36;98765.69;;;-1.42;64.53
3150;BME280;32503;47.748;8.960;2023-02-11T04:26:05;98765.91;;;-1.44;65.34
3150;BME280;32503;47.748;8.960;2023-02-11T04:28:32;98768.22;;;-1.47;64.77
3150;BME280;32503;47.748;8.960;2023-02-11T04:30:59;98772.84;;;-1.43;65.21
3150;BME280;32503;47.748;8.960;2023-02-11T04:33:26;98771.91;;;-1.37;64.99
3150;BME280;32503;47.748;8.960;2023-02-11T04:35:53;98762.94;;;-1.36;63.90
3150;BME280;32503;47.748;8.960;2023-02-11T04:38:20;98775.72;;;-1.21;63.63
3150;BME280;32503;47.748;8.960;2023-02-11T04:40:49;98779.44;;;-1.22;63.94
3150;BME280;32503;47.748;8.960;2023-02-11T04:43:17;98776.06;;;-1.29;63.81
3150;BME280;32503;47.748;8.960;2023-02-11T04:45:44;98781.16;;;-1.39;63.98
3150;BME280;32503;47.748;8.960;2023-02-11T04:48:11;98790.00;;;-1.45;64.01
3150;BME280;32503;47.748;8.960;2023-02-11T04:50:38;98785.41;;;-1.38;63.77
3150;BME280;32503;47.748;8.960;2023-02-11T04:53:05;98782.06;;;-1.34;63.95
3150;BME280;32503;47.748;8.960;2023-02-11T04:55:32;98782.78;;;-1.26;63.12
3150;BME280;32503;47.748;8.960;2023-02-11T04:57:59;98774.78;;;-1.38;63.87
3150;BME280;32503;47.748;8.960;2023-02-11T05:00:28;98789.78;;;-1.44;64.25
3150;BME280;32503;47.748;8.960;2023-02-11T05:02:55;98768.06;;;-1.64;64.25
3150;BME280;32503;47.748;8.960;2023-02-11T05:05:22;98788.16;;;-1.57;64.76
3150;BME280;32503;47.748;8.960;2023-02-11T05:07:49;98795.78;;;-1.48;64.03
3150;BME280;32503;47.748;8.960;2023-02-11T05:10:16;98798.09;;;-1.40;64.06
3150;BME280;32503;47.748;8.960;2023-02-11T05:12:43;98800.88;;;-1.35;63.67
3150;BME280;32503;47.748;8.960;2023-02-11T05:15:10;98797.41;;;-1.47;63.96
3150;BME280;32503;47.748;8.960;2023-02-11T05:17:38;98811.28;;;-1.34;63.71
3150;BME280;32503;47.748;8.960;2023-02-11T05:20:07;98815.66;;;-1.39;63.70
3150;BME280;32503;47.748;8.960;2023-02-11T05:22:34;98817.47;;;-1.51;64.30
3150;BME280;32503;47.748;8.960;2023-02-11T05:25:01;98808.09;;;-1.54;64.24
3150;BME280;32503;47.748;8.960;2023-02-11T05:27:28;98820.00;;;-1.45;63.72
3150;BME280;32503;47.748;8.960;2023-02-11T05:29:55;98821.41;;;-1.42;63.92
3150;BME280;32503;47.748;8.960;2023-02-11T05:32:22;98820.25;;;-1.46;63.50
3150;BME280;32503;47.748;8.960;2023-02-11T05:34:51;98815.16;;;-1.48;63.46
3150;BME280;32503;47.748;8.960;2023-02-11T05:37:18;98820.13;;;-1.51;63.57
3150;BME280;32503;47.748;8.960;2023-02-11T05:39:45;98820.78;;;-1.56;64.10
3150;BME280;32503;47.748;8.960;2023-02-11T05:42:12;98826.00;;;-1.49;63.56
3150;BME280;32503;47.748;8.960;2023-02-11T05:44:40;98828.44;;;-1.48;63.32
3150;BME280;32503;47.748;8.960;2023-02-11T05:47:07;98834.53;;;-1.47;63.56
3150;BME280;32503;47.748;8.960;2023-02-11T05:49:34;98841.56;;;-1.53;63.72
3150;BME280;32503;47.748;8.960;2023-02-11T05:52:03;98835.91;;;-1.57;63.85
3150;BME280;32503;47.748;8.960;2023-02-11T05:54:30;98819.91;;;-1.50;63.57
3150;BME280;32503;47.748;8.960;2023-02-11T05:56:57;98829.00;;;-1.46;63.47
3150;BME280;32503;47.748;8.960;2023-02-11T05:59:24;98827.59;;;-1.48;63.63
3150;BME280;32503;47.748;8.960;2023-02-11T06:01:52;98821.06;;;-1.46;63.76
3150;BME280;32503;47.748;8.960;2023-02-11T06:04:19;98815.41;;;-1.49;63.64
3150;BME280;32503;47.748;8.960;2023-02-11T06:06:46;98808.56;;;-1.57;63.75
3150;BME280;32503;47.748;8.960;2023-02-11T06:09:15;98796.44;;;-1.65;64.47
3150;BME280;32503;47.748;8.960;2023-02-11T06:11:42;98796.88;;;-1.68;64.99
3150;BME280;32503;47.748;8.960;2023-02-11T06:14:09;98800.13;;;-1.66;65.13
3150;BME280;32503;47.748;8.960;2023-02-11T06:16:36;98799.53;;;-1.68;64.30
3150;BME280;32503;47.748;8.960;2023-02-11T06:19:03;98812.78;;;-1.68;64.42
3150;BME280;32503;47.748;8.960;2023-02-11T06:21:30;98802.53;;;-1.64;64.43
3150;BME280;32503;47.748;8.960;2023-02-11T06:23:57;98797.16;;;-1.58;64.17
3150;BME280;32503;47.748;8.960;2023-02-11T06:26:26;98791.16;;;-1.53;63.82
3150;BME280;32503;47.748;8.960;2023-02-11T06:28:53;98788.28;;;-1.51;64.00
3150;BME280;32503;47.748;8.960;2023-02-11T06:31:20;98778.81;;;-1.47;64.09
3150;BME280;32503;47.748;8.960;2023-02-11T06:33:47;98773.41;;;-1.53;64.01
3150;BME280;32503;47.748;8.960;2023-02-11T06:36:18;98782.84;;;-1.57;64.12
3150;BME280;32503;47.748;8.960;2023-02-11T06:38:45;98783.31;;;-1.60;64.09
3150;BME280;32503;47.748;8.960;2023-02-11T06:41:15;98775.22;;;-1.65;64.01
3150;BME280;32503;47.748;8.960;2023-02-11T06:43:46;98773.63;;;-1.66;63.99
3150;BME280;32503;47.748;8.960;2023-02-11T06:46:14;98757.69;;;-1.66;63.93
3150;BME280;32503;47.748;8.960;2023-02-11T06:48:41;98768.53;;;-1.56;63.23
3150;BME280;32503;47.748;8.960;2023-02-11T06:51:11;98767.50;;;-1.55;62.97
3150;BME280;32503;47.748;8.960;2023-02-11T06:53:41;98758.84;;;-1.62;63.23
3150;BME280;32503;47.748;8.960;2023-02-11T06:56:11;98751.94;;;-1.51;62.76
3150;BME280;32503;47.748;8.960;2023-02-11T06:58:39;98747.44;;;-1.50;63.04
3150;BME280;32503;47.748;8.960;2023-02-11T07:01:10;98737.75;;;-1.45;63.26
3150;BME280;32503;47.748;8.960;2023-02-11T07:03:40;98736.50;;;-1.42;63.84
3150;BME280;32503;47.748;8.960;2023-02-11T07:06:11;98741.34;;;-1.39;63.88
3150;BME280;32503;47.748;8.960;2023-02-11T07:08:39;98751.03;;;-1.33;63.78
3150;BME280;32503;47.748;8.960;2023-02-11T07:11:27;98748.63;;;-1.23;62.99
3150;BME280;32503;47.748;8.960;2023-02-11T07:13:59;98746.41;;;-1.26;63.17
3150;BME280;32503;47.748;8.960;2023-02-11T07:16:28;98762.34;;;-1.26;63.40
3150;BME280;32503;47.748;8.960;2023-02-11T07:18:55;98771.81;;;-1.18;63.49
3150;BME280;32503;47.748;8.960;2023-02-11T07:21:23;98780.34;;;-1.04;63.70
3150;BME280;32503;47.748;8.960;2023-02-11T07:23:50;98774.31;;;-0.64;63.84
3150;BME280;32503;47.748;8.960;2023-02-11T07:26:19;98762.00;;;0.16;63.00
3150;BME280;32503;47.748;8.960;2023-02-11T07:28:48;98762.59;;;1.47;61.81
3150;BME280;32503;47.748;8.960;2023-02-11T07:31:19;98760.97;;;2.87;58.27
3150;BME280;32503;47.748;8.960;2023-02-11T07:33:48;98758.00;;;4.05;55.34
3150;BME280;32503;47.748;8.960;2023-02-11T07:36:15;98757.13;;;5.27;52.78
3150;BME280;32503;47.748;8.960;2023-02-11T07:38:42;98747.50;;;6.36;50.04
3150;BME280;32503;47.748;8.960;2023-02-11T07:41:12;98742.69;;;7.21;46.95
3150;BME280;32503;47.748;8.960;2023-02-11T07:43:40;98748.94;;;8.22;45.58
3150;BME280;32503;47.748;8.960;2023-02-11T07:46:10;98731.94;;;8.92;43.04
3150;BME280;32503;47.748;8.960;2023-02-11T07:48:37;98735.56;;;9.29;48.62
3150;BME280;32503;47.748;8.960;2023-02-11T07:51:08;98738.97;;;9.35;43.32
3150;BME280;32503;47.748;8.960;2023-02-11T07:53:35;98764.81;;;9.08;41.77
3150;BME280;32503;47.748;8.960;2023-02-11T07:56:03;98787.63;;;8.50;41.58
3150;BME280;32503;47.748;8.960;2023-02-11T07:58:32;98809.56;;;7.81;42.92
3150;BME280;32503;47.748;8.960;2023-02-11T08:01:04;98816.38;;;7.49;43.50
3150;BME280;32503;47.748;8.960;2023-02-11T08:03:33;98814.28;;;7.70;44.06
3150;BME280;32503;47.748;8.960;2023-02-11T08:06:03;98824.06;;;7.37;44.07
3150;BME280;32503;47.748;8.960;2023-02-11T08:08:32;98814.34;;;6.77;45.99
3150;BME280;32503;47.748;8.960;2023-02-11T08:11:05;98803.59;;;5.98;47.16
3150;BME280;32503;47.748;8.960;2023-02-11T08:13:33;98815.59;;;5.36;48.68
3150;BME280;32503;47.748;8.960;2023-02-11T08:16:01;98817.53;;;5.04;49.47
3150;BME280;32503;47.748;8.960;2023-02-11T08:18:28;98807.63;;;4.64;50.14
3150;BME280;32503;47.748;8.960;2023-02-11T08:20:55;98824.25;;;4.55;51.01
3150;BME280;32503;47.748;8.960;2023-02-11T08:23:22;98833.56;;;4.37;51.50
3150;BME280;32503;47.748;8.960;2023-02-11T08:25:51;98839.72;;;4.33;52.01
3150;BME280;32503;47.748;8.960;2023-02-11T08:28:18;98839.94;;;4.16;53.02
3150;BME280;32503;47.748;8.960;2023-02-11T08:30:45;98835.66;;;4.10;53.21
3150;BME280;32503;47.748;8.960;2023-02-11T08:33:12;98839.09;;;4.05;53.23
3150;BME280;32503;47.748;8.960;2023-02-11T08:35:39;98838.06;;;4.11;53.19
3150;BME280;32503;47.748;8.960;2023-02-11T08:38:06;98829.00;;;4.23;53.77
3150;BME280;32503;47.748;8.960;2023-02-11T08:40:33;98816.16;;;4.35;53.74
3150;BME280;32503;47.748;8.960;2023-02-11T08:43:02;98816.97;;;4.35;53.78
3150;BME280;32503;47.748;8.960;2023-02-11T08:45:29;98817.75;;;4.41;53.76
3150;BME280;32503;47.748;8.960;2023-02-11T08:47:56;98826.84;;;4.25;53.61
3150;BME280;32503;47.748;8.960;2023-02-11T08:50:23;98826.84;;;4.25;53.84
3150;BME280;32503;47.748;8.960;2023-02-11T08:52:53;98823.09;;;4.21;53.55
3150;BME280;32503;47.748;8.960;2023-02-11T08:55:20;98827.66;;;4.25;53.49
3150;BME280;32503;47.748;8.960;2023-02-11T08:57:47;98815.09;;;4.41;53.85
3150;BME280;32503;47.748;8.960;2023-02-11T09:00:17;98827.44;;;5.04;53.12
3150;BME280;32503;47.748;8.960;2023-02-11T09:02:44;98818.75;;;5.58;52.46
3150;BME280;32503;47.748;8.960;2023-02-11T09:05:11;98804.59;;;6.13;51.19
3150;BME280;32503;47.748;8.960;2023-02-11T09:07:38;98793.28;;;6.16;49.28
3150;BME280;32503;47.748;8.960;2023-02-11T09:10:06;98800.59;;;6.05;50.38
3150;BME280;32503;47.748;8.960;2023-02-11T09:12:33;98789.06;;;6.04;50.15
3150;BME280;32503;47.748;8.960;2023-02-11T09:15:00;98777.81;;;5.92;50.03
3150;BME280;32503;47.748;8.960;2023-02-11T09:17:29;98772.84;;;5.70;50.68
3150;BME280;32503;47.748;8.960;2023-02-11T09:19:56;98772.13;;;5.49;50.73
3150;BME280;32503;47.748;8.960;2023-02-11T09:22:23;98777.00;;;5.31;51.15
3150;BME280;32503;47.748;8.960;2023-02-11T09:24:50;98781.56;;;5.26;51.36
3150;BME280;32503;47.748;8.960;2023-02-11T09:27:17;98780.50;;;5.22;51.85
3150;BME280;32503;47.748;8.960;2023-02-11T09:29:44;98792.59;;;5.14;51.89
3150;BME280;32503;47.748;8.960;2023-02-11T09:32:11;98777.84;;;5.06;52.28
3150;BME280;32503;47.748;8.960;2023-02-11T09:34:39;98785.09;;;5.06;52.73
3150;BME280;32503;47.748;8.960;2023-02-11T09:37:06;98785.63;;;5.03;53.03
3150;BME280;32503;47.748;8.960;2023-02-11T09:39:33;98777.56;;;5.03;53.31
3150;BME280;32503;47.748;8.960;2023-02-11T09:42:28;98773.81;;;5.14;53.52
3150;BME280;32503;47.748;8.960;2023-02-11T09:45:03;98777.56;;;5.13;53.41
3150;BME280;32503;47.748;8.960;2023-02-11T09:47:33;98786.38;;;5.19;53.32
3150;BME280;32503;47.748;8.960;2023-02-11T09:50:04;98777.28;;;5.20;53.25
3150;BME280;32503;47.748;8.960;2023-02-11T09:52:39;98785.88;;;5.17;53.31
3150;BME280;32503;47.748;8.960;2023-02-11T09:55:17;98786.69;;;5.17;53.17
3150;BME280;32503;47.748;8.960;2023-02-11T09:57:46;98782.38;;;5.21;53.44
3150;BME280;32503;47.748;8.960;2023-02-11T10:00:21;98793.09;;;5.26;53.42
3150;BME280;32503;47.748;8.960;2023-02-11T10:03:04;98790.41;;;5.21;52.85
3150;BME280;32503;47.748;8.960;2023-02-11T10:05:57;98799.53;;;5.15;53.07
3150;BME280;32503;47.748;8.960;2023-02-11T10:08:37;98795.81;;;5.01;53.43
3150;BME280;32503;47.748;8.960;2023-02-11T10:11:13;98802.78;;;5.07;53.53
3150;BME280;32503;47.748;8.960;2023-02-11T10:13:51;98796.34;;;5.08;54.05
3150;BME280;32503;47.748;8.960;2023-02-11T10:16:36;98805.13;;;5.44;53.96
3150;BME280;32503;47.748;8.960;2023-02-11T10:19:23;98814.34;;;5.88;53.08
3150;BME280;32503;47.748;8.960;2023-02-11T10:22:08;98805.03;;;6.30;51.46
3150;BME280;32503;47.748;8.960;2023-02-11T10:24:50;98801.97;;;6.81;50.79
3150;BME280;32503;47.748;8.960;2023-02-11T10:27:21;98794.56;;;7.27;49.19
3150;BME280;32503;47.748;8.960;2023-02-11T10:29:54;98797.78;;;7.77;47.84
3150;BME280;32503;47.748;8.960;2023-02-11T10:32:38;98799.69;;;7.95;46.40
3150;BME280;32503;47.748;8.960;2023-02-11T10:35:14;98794.47;;;8.23;45.83
3150;BME280;32503;47.748;8.960;2023-02-11T10:37:44;98785.00;;;8.45;45.80
3150;BME280;32503;47.748;8.960;2023-02-11T10:40:21;98778.66;;;8.35;44.15
3150;BME280;32503;47.748;8.960;2023-02-11T10:42:51;98791.25;;;8.59;45.10
3150;BME280;32503;47.748;8.960;2023-02-11T10:45:26;98777.94;;;8.82;44.63
3150;BME280;32503;47.748;8.960;2023-02-11T10:47:54;98771.00;;;9.08;44.40
3150;BME280;32503;47.748;8.960;2023-02-11T10:50:24;98775.28;;;9.42;43.28
3150;BME280;32503;47.748;8.960;2023-02-11T10:53:14;98763.16;;;9.26;43.73
3150;BME280;32503;47.748;8.960;2023-02-11T10:55:53;98764.25;;;9.25;43.97
3150;BME280;32503;47.748;8.960;2023-02-11T10:58:25;98763.44;;;9.38;43.26
3150;BME280;32503;47.748;8.960;2023-02-11T11:00:56;98757.56;;;9.64;43.40
3150;BME280;32503;47.748;8.960;2023-02-11T11:03:27;98747.44;;;9.83;42.94
3150;BME280;32503;47.748;8.960;2023-02-11T11:05:57;98748.59;;;9.91;42.99
3150;BME280;32503;47.748;8.960;2023-02-11T11:08:40;98760.38;;;9.95;42.27
3150;BME280;32503;47.748;8.960;2023-02-11T11:11:11;98754.78;;;9.92;42.62
3150;BME280;32503;47.748;8.960;2023-02-11T11:13:40;98737.22;;;9.80;43.11
3150;BME280;32503;47.748;8.960;2023-02-11T11:16:23;98744.22;;;9.81;43.31
3150;BME280;32503;47.748;8.960;2023-02-11T11:18:52;98740.13;;;9.70;43.24
3150;BME280;32503;47.748;8.960;2023-02-11T11:21:22;98741.16;;;9.74;42.94
3150;BME280;32503;47.748;8.960;2023-02-11T11:23:57;98731.44;;;9.73;42.16
3150;BME280;32503;47.748;8.960;2023-02-11T11:26:27;98712.06;;;9.57;42.81
3150;BME280;32503;47.748;8.960;2023-02-11T11:29:00;98716.66;;;9.01;43.69
3150;BME280;32503;47.748;8.960;2023-02-11T11:31:33;98717.31;;;8.27;45.48
3150;BME280;32503;47.748;8.960;2023-02-11T11:34:16;98707.75;;;8.54;45.91
3150;BME280;32503;47.748;8.960;2023-02-11T11:36:47;98709.38;;;8.55;45.65
3150;BME280;32503;47.748;8.960;2023-02-11T11:39:21;98696.63;;;8.75;45.58
3150;BME280;32503;47.748;8.960;2023-02-11T11:41:52;98697.84;;;8.96;45.36
3150;BME280;32503;47.748;8.960;2023-02-11T11:44:30;98697.41;;;8.61;45.16
3150;BME280;32503;47.748;8.960;2023-02-11T11:47:23;98696.88;;;8.26;45.93
3150;BME280;32503;47.748;8.960;2023-02-11T11:50:13;98697.97;;;8.25;46.30
3150;BME280;32503;47.748;8.960;2023-02-11T11:52:47;98697.38;;;8.47;45.85
3150;BME280;32503;47.748;8.960;2023-02-11T11:55:21;98691.78;;;8.44;45.15
3150;BME280;32503;47.748;8.960;2023-02-11T11:57:50;98696.09;;;8.59;44.86
3150;BME280;32503;47.748;8.960;2023-02-11T12:00:20;98685.44;;;8.67;44.97
3150;BME280;32503;47.748;8.960;2023-02-11T12:03:15;98686.84;;;8.92;44.28
3150;BME280;32503;47.748;8.960;2023-02-11T12:06:01;98686.84;;;8.79;44.86
3150;BME280;32503;47.748;8.960;2023-02-11T12:08:43;98679.03;;;8.63;44.55
3150;BME280;32503;47.748;8.960;2023-02-11T12:11:21;98677.69;;;8.47;44.54
3150;BME280;32503;47.748;8.960;2023-02-11T12:14:07;98678.59;;;8.42;45.09
3150;BME280;32503;47.748;8.960;2023-02-11T12:16:49;98684.94;;;8.65;44.70
3150;BME280;32503;47.748;8.960;2023-02-11T12:19:54;98686.03;;;8.64;44.01
3150;BME280;32503;47.748;8.960;2023-02-11T12:22:39;98677.66;;;8.80;44.56
3150;BME280;32503;47.748;8.960;2023-02-11T12:25:27;98669.25;;;8.67;43.30
3150;BME280;32503;47.748;8.960;2023-02-11T12:28:13;98677.72;;;8.61;43.97
3150;BME280;32503;47.748;8.960;2023-02-11T12:30:56;98682.88;;;7.29;46.68
3150;BME280;32503;47.748;8.960;2023-02-11T12:33:56;98686.13;;;7.26;46.49
3150;BME280;32503;47.748;8.960;2023-02-11T12:36:42;98684.56;;;7.44;45.97
3150;BME280;32503;47.748;8.960;2023-02-11T12:39:25;98689.75;;;7.59;46.56
3150;BME280;32503;47.748;8.960;2023-02-11T12:42:13;98690.56;;;7.60;45.53
3150;BME280;32503;47.748;8.960;2023-02-11T12:45:16;98684.09;;;7.80;45.79
3150;BME280;32503;47.748;8.960;2023-02-11T12:47:59;98674.78;;;7.91;44.86
3150;BME280;32503;47.748;8.960;2023-02-11T12:50:36;98675.03;;;8.28;44.28
3150;BME280;32503;47.748;8.960;2023-02-11T12:53:32;98668.81;;;8.46;44.40
3150;BME280;32503;47.748;8.960;2023-02-11T12:56:07;98670.22;;;8.25;45.10
3150;BME280;32503;47.748;8.960;2023-02-11T12:58:39;98657.25;;;8.46;45.27
3150;BME280;32503;47.748;8.960;2023-02-11T13:01:14;98658.16;;;8.55;44.78
3150;BME280;32503;47.748;8.960;2023-02-11T13:03:45;98658.25;;;8.50;44.20
3150;BME280;32503;47.748;8.960;2023-02-11T13:06:16;98651.66;;;8.70;44.43
3150;BME280;32503;47.748;8.960;2023-02-11T13:08:49;98648.31;;;8.92;44.47
3150;BME280;32503;47.748;8.960;2023-02-11T13:11:20;98649.69;;;9.03;44.10
3150;BME280;32503;47.748;8.960;2023-02-11T13:13:54;98644.09;;;9.14;43.64
3150;BME280;32503;47.748;8.960;2023-02-11T13:16:35;98647.72;;;8.95;42.79
3150;BME280;32503;47.748;8.960;2023-02-11T13:19:16;98645.22;;;9.13;42.96
3150;BME280;32503;47.748;8.960;2023-02-11T13:22:01;98649.88;;;9.07;43.09
3150;BME280;32503;47.748;8.960;2023-02-11T13:24:39;98640.31;;;9.28;43.18
3150;BME280;32503;47.748;8.960;2023-02-11T13:27:19;98618.91;;;9.32;42.87
3150;BME280;32503;47.748;8.960;2023-02-11T13:30:30;98620.88;;;9.77;42.50
3150;BME280;32503;47.748;8.960;2023-02-11T13:33:39;98617.06;;;9.41;42.22
3150;BME280;32503;47.748;8.960;2023-02-11T13:36:23;98607.53;;;9.21;41.47
3150;BME280;32503;47.748;8.960;2023-02-11T13:39:00;98608.75;;;9.52;41.73
3150;BME280;32503;47.748;8.960;2023-02-11T13:41:37;98607.91;;;9.65;42.10
3150;BME280;32503;47.748;8.960;2023-02-11T13:44:25;98604.19;;;9.75;42.37
3150;BME280;32503;47.748;8.960;2023-02-11T13:46:57;98602.94;;;9.81;42.17
3150;BME280;32503;47.748;8.960;2023-02-11T13:49:32;98599.28;;;9.99;42.11
3150;BME280;32503;47.748;8.960;2023-02-11T13:52:14;98595.78;;;9.99;41.67